Airfield :
LOGIN :

Register | Disclaimer

   EN    FR    IT 

 










Legend :    VFR   Marginal VFR   IFR   Intensive IFR   Very Intensive IFR
Visi :
Ceiling :
>= 8 km
>= 3000ft
5 to 8 km
1000 to 3000 ft
1500m to 5 km
500 to 1000 ft
800 to 1500m
200 to 500 ft
< 800m
< 200 ft
Symbols :   Thunderstorms  Fog  Heavy snow  Heavy precipitations  Wind > 20 kt
SIGMETs :     Misc.  Thunderstorms  Icing  Turbulence  Mountain Waves  Volcanic Ashes






- Airport Elevation : 162 ft
- IATA code : BOD


LFBD - Bordeaux / Merignac

CURRENT METAR :
  • 131700Z AUTO 26007KT 9999 SCT010 BKN014 BKN025 21/20 Q1016 TEMPO 24015G25KT 3000 SHRA BKN008 BKN030TCU

EXPIRED METARs :
  • 131630Z AUTO 27010KT 9999 BKN008 BKN012 BKN029 21/19 Q1016 TEMPO 24015G25KT 3000 SHRA BKN008 BKN030TCU
  • 131600Z AUTO 26009KT 9999 2900 SCT009/// BKN014/// BKN025/// ///TCU 20/19 Q1016 BECMG BKN020
  • 131530Z AUTO 26010KT 7000 -RA BKN006/// BKN010/// BKN025/// ///TCU 20/19 Q1016 BECMG BKN020
  • 131500Z AUTO 25016KT 4300 2000 DZ BR SCT008/// BKN013/// BKN018/// ///TCU 20/19 Q1016 TEMPO 24015G25KT BECMG 9999 NSW BKN020
  • 131430Z AUTO 23013KT 9999 OVC015/// ///TCU 22/19 Q1016 TEMPO 24015G25KT 3000 RA BECMG BKN020

TAF AMD TAF LFBD
Valid from the 13 at 16:00 until the 14 at 18:00 UTC


131607Z 1316/1418 24010KT 9999 BKN020 TX27/1415Z TN17/1404Z
TEMPO 1316/1318 24015G25KT 3000 SHRA BKN008 BKN030TCU
BECMG 1323/1401 VRB02KT
BECMG 1410/1412 CAVOK
ATIS : +33 5 57 92 81 04



MET'MAP, your aeronautical weather chart ! - Copyright ORBIFLY December 2007 - Disclaimer

ORBIFLY MET'MAP TEAM :

Programming & Development : Alexandra Zaïnal
Concept & original design : Baudouin d'Aumeries
Assistance for programming : Marc-Olivier Méhu
Technical & hardware support : Manuel Goepfert

Contact : metmap@orbifly.com




SOURCES & CREDITS :

   NOAA